createdAt,value
2022-08-26T00:00:54.901Z,14.40
2022-08-26T00:03:24.777Z,16.87
2022-08-26T00:05:55.203Z,16.10
2022-08-26T00:08:24.339Z,20.63
2022-08-26T00:10:52.982Z,16.67
2022-08-26T00:13:22.476Z,14.30
2022-08-26T00:15:51.256Z,15.67
2022-08-26T00:18:22.133Z,15.90
2022-08-26T00:20:51.714Z,16.80
2022-08-26T00:23:24.089Z,17.77
2022-08-26T00:25:53.293Z,12.90
2022-08-26T00:28:22.621Z,14.40
2022-08-26T00:30:52.281Z,13.97
2022-08-26T00:33:22.111Z,14.20
2022-08-26T00:35:51.626Z,19.47
2022-08-26T00:38:22.218Z,19.50
2022-08-26T00:40:55.293Z,16.33
2022-08-26T00:43:26.974Z,15.23
2022-08-26T00:46:04.295Z,15.20
2022-08-26T00:48:36.653Z,13.80
2022-08-26T00:51:15.570Z,13.23
2022-08-26T00:53:53.059Z,18.70
2022-08-26T00:56:28.353Z,16.77
2022-08-26T00:59:02.882Z,21.30
2022-08-26T01:01:33.027Z,13.87
2022-08-26T01:04:02.826Z,12.73
2022-08-26T01:06:31.532Z,15.30
2022-08-26T01:09:01.346Z,13.50
2022-08-26T01:11:29.943Z,14.77
2022-08-26T01:14:03.240Z,15.97
2022-08-26T01:16:33.238Z,12.50
2022-08-26T01:19:10.667Z,16.50
2022-08-26T01:21:49.084Z,15.33
2022-08-26T01:24:19.672Z,17.37
2022-08-26T01:26:49.472Z,17.30
2022-08-26T01:29:21.198Z,19.00
2022-08-26T01:31:56.868Z,17.90
2022-08-26T01:34:29.124Z,20.90
2022-08-26T01:37:06.886Z,15.37
2022-08-26T01:39:39.248Z,21.37
2022-08-26T01:42:14.117Z,19.17
2022-08-26T01:44:48.559Z,20.27
2022-08-26T01:47:21.127Z,21.70
2022-08-26T01:49:53.775Z,19.50
2022-08-26T01:52:28.229Z,19.90
2022-08-26T01:55:00.373Z,19.10
2022-08-26T01:57:30.580Z,21.47
2022-08-26T02:00:03.819Z,15.90
2022-08-26T02:02:41.075Z,18.43
2022-08-26T02:05:17.880Z,19.07
2022-08-26T02:07:48.531Z,21.70
2022-08-26T02:10:18.225Z,16.87
2022-08-26T02:12:49.697Z,14.80
2022-08-26T02:15:19.933Z,19.00
2022-08-26T02:17:52.666Z,20.93
2022-08-26T02:20:22.487Z,19.03
2022-08-26T02:22:52.082Z,22.30
2022-08-26T02:25:30.505Z,16.57
2022-08-26T02:27:59.683Z,18.60
2022-08-26T02:30:33.755Z,16.43
2022-08-26T02:33:04.375Z,18.20
2022-08-26T02:35:35.987Z,19.93
2022-08-26T02:38:11.102Z,19.43
2022-08-26T02:40:43.802Z,18.33
2022-08-26T02:43:12.583Z,17.47
2022-08-26T02:45:42.247Z,17.93
2022-08-26T02:48:15.592Z,18.97
2022-08-26T02:50:44.401Z,18.00
2022-08-26T02:53:13.272Z,20.30
2022-08-26T02:55:44.308Z,20.63
2022-08-26T02:58:12.933Z,20.60
2022-08-26T03:00:53.140Z,25.27
2022-08-26T03:03:23.474Z,19.90
2022-08-26T03:05:52.400Z,20.07
2022-08-26T03:08:20.934Z,21.47
2022-08-26T03:10:51.777Z,17.20
2022-08-26T03:13:20.166Z,20.90
2022-08-26T03:15:49.222Z,20.80
2022-08-26T03:18:17.763Z,21.97
2022-08-26T03:20:49.487Z,20.27
2022-08-26T03:23:18.498Z,22.80
2022-08-26T03:25:54.383Z,23.87
2022-08-26T03:28:24.459Z,16.83
2022-08-26T03:30:54.860Z,22.93
2022-08-26T03:33:23.206Z,19.10
2022-08-26T03:35:52.520Z,20.57
2022-08-26T03:38:26.009Z,28.00
2022-08-26T03:40:56.476Z,21.17
2022-08-26T03:43:26.791Z,17.77
2022-08-26T03:45:55.493Z,24.07
2022-08-26T03:48:23.869Z,23.67
2022-08-26T03:50:53.570Z,24.10
2022-08-26T03:53:21.860Z,19.93
2022-08-26T03:55:51.878Z,21.73
2022-08-26T03:58:24.161Z,20.73
2022-08-26T04:00:55.657Z,19.87
2022-08-26T04:03:38.511Z,19.90
2022-08-26T04:06:08.078Z,24.13
2022-08-26T04:08:38.442Z,20.77
2022-08-26T04:11:07.534Z,22.63
2022-08-26T04:13:43.377Z,20.30
2022-08-26T04:16:12.140Z,27.53
2022-08-26T04:18:46.606Z,24.37
2022-08-26T04:21:15.615Z,20.77
2022-08-26T04:23:47.491Z,17.53
2022-08-26T04:26:17.677Z,19.73
2022-08-26T04:28:48.686Z,23.83
2022-08-26T04:31:19.514Z,22.07
2022-08-26T04:33:50.815Z,24.50
2022-08-26T04:36:20.339Z,20.50
2022-08-26T04:38:50.617Z,24.40
2022-08-26T04:41:22.096Z,24.17
2022-08-26T04:43:51.934Z,25.80
2022-08-26T04:46:25.475Z,19.60
2022-08-26T04:48:55.236Z,22.33
2022-08-26T04:51:28.051Z,22.77
2022-08-26T04:53:57.667Z,21.00
2022-08-26T04:56:26.938Z,22.73
2022-08-26T04:58:57.062Z,26.73
2022-08-26T05:01:25.889Z,20.07
2022-08-26T05:03:54.768Z,18.43
2022-08-26T05:06:23.195Z,21.73
2022-08-26T05:08:51.591Z,22.03
2022-08-26T05:11:22.492Z,22.60
2022-08-26T05:13:50.869Z,23.93
2022-08-26T05:16:20.935Z,17.33
2022-08-26T05:18:49.609Z,20.87
2022-08-26T05:21:21.103Z,23.00
2022-08-26T05:23:51.643Z,19.43
2022-08-26T05:26:23.127Z,22.07
2022-08-26T05:28:54.680Z,20.37
2022-08-26T05:31:29.418Z,17.23
2022-08-26T05:34:00.119Z,18.97
2022-08-26T05:36:36.176Z,19.20
2022-08-26T05:39:07.576Z,26.20
2022-08-26T05:41:42.847Z,25.37
2022-08-26T05:44:18.678Z,21.77
2022-08-26T05:46:49.448Z,23.17
2022-08-26T05:49:20.307Z,25.27
2022-08-26T05:51:50.892Z,20.17
2022-08-26T05:54:21.866Z,19.27
2022-08-26T05:56:51.902Z,21.70
2022-08-26T05:59:24.261Z,22.73
2022-08-26T06:01:55.467Z,22.33
2022-08-26T06:04:27.232Z,20.70
2022-08-26T06:06:57.713Z,21.93
2022-08-26T06:09:27.277Z,19.70
2022-08-26T06:11:55.996Z,20.57
2022-08-26T06:14:25.918Z,23.90
2022-08-26T06:16:56.516Z,22.67
2022-08-26T06:19:25.671Z,25.30
2022-08-26T06:22:23.626Z,25.37
2022-08-26T06:25:09.909Z,21.00
2022-08-26T06:27:39.036Z,17.40
2022-08-26T06:30:09.884Z,18.40
2022-08-26T06:32:40.095Z,26.40
2022-08-26T06:35:12.009Z,20.50
2022-08-26T06:37:42.749Z,18.13
2022-08-26T06:40:12.879Z,20.50
2022-08-26T06:42:41.427Z,21.83
2022-08-26T06:45:10.863Z,22.90
2022-08-26T06:47:40.960Z,28.37
2022-08-26T06:50:10.323Z,20.50
2022-08-26T06:52:42.120Z,18.57
2022-08-26T06:55:11.000Z,22.77
2022-08-26T06:57:41.167Z,18.13
2022-08-26T07:00:12.281Z,26.60
2022-08-26T07:02:46.193Z,19.20
2022-08-26T07:05:16.576Z,20.03
2022-08-26T07:07:44.904Z,17.73
2022-08-26T07:10:13.301Z,18.00
2022-08-26T07:12:41.607Z,21.33
2022-08-26T07:15:16.017Z,24.00
2022-08-26T07:17:45.814Z,19.57
2022-08-26T07:20:14.129Z,20.77
2022-08-26T07:22:43.751Z,26.47
2022-08-26T07:25:12.298Z,20.80
2022-08-26T07:27:40.661Z,21.43
2022-08-26T07:30:11.211Z,21.10
2022-08-26T07:32:44.671Z,19.83
2022-08-26T07:35:14.028Z,23.73
2022-08-26T07:37:42.697Z,23.80
2022-08-26T07:40:11.766Z,21.40
2022-08-26T07:42:40.403Z,22.47
2022-08-26T07:45:09.888Z,19.03
2022-08-26T07:47:38.673Z,19.00
2022-08-26T07:50:09.476Z,17.57
2022-08-26T07:52:38.609Z,20.73
2022-08-26T07:55:10.203Z,16.57
2022-08-26T07:57:41.273Z,25.03
2022-08-26T08:00:15.922Z,23.83
2022-08-26T08:02:45.762Z,18.47
2022-08-26T08:05:21.378Z,18.33
2022-08-26T08:07:53.495Z,25.10
2022-08-26T08:10:28.746Z,20.53
2022-08-26T08:12:59.347Z,23.37
2022-08-26T08:15:32.129Z,22.87
2022-08-26T08:18:01.840Z,22.37
2022-08-26T08:20:35.476Z,20.70
2022-08-26T08:23:05.541Z,18.97
2022-08-26T08:25:35.428Z,18.53
2022-08-26T08:28:04.759Z,21.43
2022-08-26T08:30:33.273Z,19.73
2022-08-26T08:33:03.433Z,23.83
2022-08-26T08:35:34.481Z,17.27
2022-08-26T08:38:04.210Z,20.60
2022-08-26T08:40:32.904Z,23.83
2022-08-26T08:43:06.801Z,21.27
2022-08-26T08:45:40.915Z,17.17
2022-08-26T08:48:21.287Z,28.17
2022-08-26T08:51:08.665Z,19.43
2022-08-26T08:53:41.659Z,23.93
2022-08-26T08:56:23.584Z,21.40
2022-08-26T08:59:07.745Z,19.87
2022-08-26T09:01:56.509Z,19.70
2022-08-26T09:05:08.829Z,19.77
2022-08-26T09:07:51.519Z,26.67
2022-08-26T09:10:34.406Z,21.63
2022-08-26T09:13:09.274Z,20.53
2022-08-26T09:15:59.250Z,22.77
2022-08-26T09:19:04.764Z,18.20
2022-08-26T09:21:33.706Z,21.17
2022-08-26T09:24:04.338Z,23.07
2022-08-26T09:26:47.600Z,15.73
2022-08-26T09:29:24.616Z,17.17
2022-08-26T09:32:13.824Z,21.70
2022-08-26T09:34:58.616Z,16.27
2022-08-26T09:37:42.446Z,22.07
2022-08-26T09:40:27.481Z,40.70
2022-08-26T09:43:15.783Z,18.77
2022-08-26T09:45:50.023Z,18.77
2022-08-26T09:48:30.892Z,24.50
2022-08-26T09:51:02.528Z,22.27
2022-08-26T09:53:36.586Z,18.53
2022-08-26T09:56:23.327Z,23.77
2022-08-26T09:58:53.082Z,23.07
2022-08-26T10:01:32.165Z,22.00
2022-08-26T10:04:10.926Z,18.10
2022-08-26T10:06:44.409Z,21.73
2022-08-26T10:09:19.507Z,21.23
2022-08-26T10:11:55.006Z,26.67
2022-08-26T10:14:29.601Z,18.70
2022-08-26T10:17:06.869Z,17.80
2022-08-26T10:19:55.783Z,17.63
2022-08-26T10:22:35.829Z,24.08
2022-08-26T10:25:12.209Z,15.65
2022-08-26T10:27:53.405Z,18.50
2022-08-26T10:30:28.673Z,17.23
2022-08-26T10:33:04.339Z,16.45
2022-08-26T10:35:38.166Z,52.73
2022-08-26T10:38:14.896Z,13.13
2022-08-26T10:40:55.080Z,14.23
2022-08-26T10:43:30.010Z,11.73
2022-08-26T10:46:06.931Z,19.70
2022-08-26T10:48:47.344Z,17.87
2022-08-26T10:51:21.176Z,18.63
2022-08-26T10:54:03.289Z,18.50
2022-08-26T10:56:46.995Z,16.37
2022-08-26T10:59:30.066Z,18.63
2022-08-26T11:02:07.379Z,18.27
2022-08-26T11:04:49.156Z,18.20
2022-08-26T11:07:39.238Z,19.47
2022-08-26T11:10:31.612Z,19.97
2022-08-26T11:13:03.575Z,15.47
2022-08-26T11:16:02.348Z,17.30
2022-08-26T11:18:44.321Z,19.93
2022-08-26T11:22:05.875Z,14.50
2022-08-26T11:25:02.423Z,19.33
2022-08-26T11:27:57.714Z,19.87
2022-08-26T11:30:47.720Z,17.07
2022-08-26T11:33:51.026Z,16.63
2022-08-26T11:36:42.849Z,17.97
2022-08-26T11:39:22.036Z,18.70
2022-08-26T11:41:53.710Z,16.17
2022-08-26T11:44:26.259Z,16.43
2022-08-26T11:46:57.680Z,24.47
2022-08-26T11:49:29.185Z,21.90
2022-08-26T11:52:18.113Z,13.27
2022-08-26T11:55:07.858Z,21.67
2022-08-26T11:57:48.418Z,16.23
2022-08-26T12:00:23.477Z,16.97
2022-08-26T12:02:54.628Z,17.87
2022-08-26T12:05:31.166Z,23.10
2022-08-26T12:08:08.458Z,14.03
2022-08-26T12:10:40.184Z,17.53
2022-08-26T12:13:20.867Z,15.93
2022-08-26T12:15:56.405Z,20.53
2022-08-26T12:18:30.178Z,14.20
2022-08-26T12:21:12.247Z,18.50
2022-08-26T12:23:46.030Z,16.70
2022-08-26T12:26:25.366Z,18.97
2022-08-26T12:28:58.304Z,15.33
2022-08-26T12:31:32.646Z,15.63
2022-08-26T12:34:05.989Z,15.93
2022-08-26T12:36:49.164Z,15.93
2022-08-26T12:39:29.788Z,17.47
2022-08-26T12:42:01.481Z,17.10
2022-08-26T12:44:53.361Z,20.53
2022-08-26T12:47:43.084Z,19.83
2022-08-26T12:50:20.594Z,17.07
2022-08-26T12:53:01.716Z,19.23
2022-08-26T12:55:42.969Z,18.60
2022-08-26T12:58:30.016Z,21.30
2022-08-26T13:01:22.258Z,19.80
2022-08-26T13:03:51.897Z,16.20
2022-08-26T13:06:31.088Z,18.67
2022-08-26T13:09:05.950Z,14.20
2022-08-26T13:11:59.428Z,15.37
2022-08-26T13:14:31.088Z,16.57
2022-08-26T13:16:59.868Z,18.23
2022-08-26T13:19:29.523Z,17.77
2022-08-26T13:22:00.991Z,16.40
2022-08-26T13:24:36.521Z,13.93
2022-08-26T13:27:07.598Z,11.73
2022-08-26T13:29:36.058Z,15.03
2022-08-26T13:32:06.827Z,18.23
2022-08-26T13:34:37.753Z,11.23
2022-08-26T13:37:07.323Z,15.20
2022-08-26T13:39:38.065Z,13.37
2022-08-26T13:42:07.055Z,14.87
2022-08-26T13:44:35.928Z,15.27
2022-08-26T13:47:04.775Z,15.97
2022-08-26T13:49:33.167Z,15.60
2022-08-26T13:52:03.600Z,18.40
2022-08-26T13:54:31.907Z,12.70
2022-08-26T13:57:01.833Z,15.97
2022-08-26T13:59:30.269Z,10.87
2022-08-26T14:02:00.589Z,14.40
2022-08-26T14:04:29.488Z,13.97
2022-08-26T14:06:57.928Z,12.80
2022-08-26T14:09:26.339Z,17.00
2022-08-26T14:11:55.356Z,14.10
2022-08-26T14:14:25.435Z,16.37
2022-08-26T14:16:59.400Z,13.00
2022-08-26T14:19:30.890Z,14.20
2022-08-26T14:22:01.729Z,13.47
2022-08-26T14:24:30.373Z,15.60
2022-08-26T14:26:59.441Z,10.53
2022-08-26T14:29:29.375Z,13.03
2022-08-26T14:31:59.629Z,15.30
2022-08-26T14:34:28.290Z,13.63
2022-08-26T14:36:56.657Z,23.27
2022-08-26T14:39:25.546Z,31.33
2022-08-26T14:41:57.766Z,32.03
2022-08-26T14:44:32.097Z,23.40
2022-08-26T14:47:03.149Z,14.57
2022-08-26T14:49:32.059Z,13.67
2022-08-26T14:52:01.017Z,9.37
2022-08-26T14:54:29.491Z,19.17
2022-08-26T14:57:02.227Z,10.03
2022-08-26T14:59:35.266Z,12.43
2022-08-26T15:02:04.781Z,7.47
2022-08-26T15:04:34.091Z,8.93
2022-08-26T15:07:03.461Z,8.13
2022-08-26T15:09:37.613Z,8.93
2022-08-26T15:12:07.204Z,7.37
2022-08-26T15:14:36.807Z,7.67
2022-08-26T15:17:05.276Z,9.57
2022-08-26T15:19:33.583Z,11.90
2022-08-26T15:22:02.201Z,7.87
2022-08-26T15:24:30.489Z,7.43
2022-08-26T15:26:59.322Z,8.13
2022-08-26T15:29:27.751Z,6.67
2022-08-26T15:31:57.895Z,5.27
2022-08-26T15:34:26.851Z,7.77
2022-08-26T15:36:55.671Z,7.47
2022-08-26T15:39:24.504Z,9.20
2022-08-26T15:41:53.317Z,9.13
2022-08-26T15:44:21.629Z,8.67
2022-08-26T15:46:54.255Z,8.37
2022-08-26T15:49:27.359Z,12.10
2022-08-26T15:51:55.921Z,8.13
2022-08-26T15:54:25.248Z,12.40
2022-08-26T15:56:53.790Z,6.00
2022-08-26T15:59:22.985Z,7.87
2022-08-26T16:01:52.756Z,7.23
2022-08-26T16:04:21.616Z,7.77
2022-08-26T16:06:53.197Z,6.67
2022-08-26T16:09:27.017Z,9.30
2022-08-26T16:11:56.747Z,9.53
2022-08-26T16:14:27.551Z,6.53
2022-08-26T16:16:57.468Z,9.00
2022-08-26T16:19:25.830Z,7.13
2022-08-26T16:21:55.530Z,9.90
2022-08-26T16:24:28.432Z,6.63
2022-08-26T16:26:59.023Z,10.07
2022-08-26T16:29:28.238Z,6.03
2022-08-26T16:31:56.556Z,7.57
2022-08-26T16:34:25.672Z,12.30
2022-08-26T16:36:55.295Z,10.70
2022-08-26T16:39:23.887Z,15.03
2022-08-26T16:41:52.472Z,5.93
2022-08-26T16:44:22.120Z,7.07
2022-08-26T16:46:50.539Z,6.20
2022-08-26T16:49:24.271Z,6.80
2022-08-26T16:51:52.571Z,7.03
2022-08-26T16:54:22.411Z,8.07
2022-08-26T16:56:50.699Z,6.40
2022-08-26T16:59:19.547Z,8.90
2022-08-26T17:01:47.921Z,5.40
2022-08-26T17:04:17.009Z,7.90
2022-08-26T17:06:45.364Z,8.87
2022-08-26T17:09:14.020Z,6.50
2022-08-26T17:11:44.502Z,7.70
2022-08-26T17:14:13.529Z,6.20
2022-08-26T17:16:41.903Z,5.73
2022-08-26T17:19:11.084Z,6.80
2022-08-26T17:21:40.622Z,8.07
2022-08-26T17:24:09.552Z,9.90
2022-08-26T17:26:39.375Z,7.00
2022-08-26T17:29:08.985Z,9.87
2022-08-26T17:31:37.307Z,8.23
2022-08-26T17:34:06.021Z,9.10
2022-08-26T17:36:34.684Z,6.50
2022-08-26T17:39:03.287Z,9.30
2022-08-26T17:41:31.751Z,9.27
2022-08-26T17:44:00.112Z,7.23
2022-08-26T17:46:33.206Z,13.13
2022-08-26T17:49:03.218Z,7.27
2022-08-26T17:51:31.919Z,6.30
2022-08-26T17:54:00.228Z,7.73
2022-08-26T17:56:30.713Z,7.43
2022-08-26T17:59:02.510Z,6.80
2022-08-26T18:01:34.247Z,7.13
2022-08-26T18:04:04.735Z,10.63
2022-08-26T18:06:34.608Z,9.87
2022-08-26T18:09:03.423Z,8.07
2022-08-26T18:11:34.453Z,9.07
2022-08-26T18:14:02.777Z,7.80
2022-08-26T18:16:38.135Z,8.03
2022-08-26T18:19:07.383Z,10.27
2022-08-26T18:21:37.128Z,7.37
2022-08-26T18:24:09.112Z,10.33
2022-08-26T18:26:47.912Z,7.90
2022-08-26T18:29:19.376Z,8.37
2022-08-26T18:31:49.569Z,7.40
2022-08-26T18:34:19.465Z,10.60
2022-08-26T18:36:48.799Z,8.33
2022-08-26T18:39:19.137Z,8.40
2022-08-26T18:41:53.238Z,11.00
2022-08-26T18:44:23.615Z,6.97
2022-08-26T18:46:53.886Z,10.90
2022-08-26T18:49:23.102Z,11.83
2022-08-26T18:51:52.354Z,10.33
2022-08-26T18:56:54.904Z,9.73
2022-08-26T18:59:28.395Z,11.53
2022-08-26T19:02:00.655Z,9.57
2022-08-26T19:04:29.235Z,9.00
2022-08-26T19:06:57.533Z,7.37
2022-08-26T19:09:26.683Z,8.57
2022-08-26T19:14:30.258Z,8.60
2022-08-26T19:17:01.619Z,9.80
2022-08-26T19:19:30.445Z,11.07
2022-08-26T19:21:59.365Z,8.30
2022-08-26T19:24:28.557Z,9.87
2022-08-26T19:27:00.968Z,10.77
2022-08-26T19:29:33.055Z,9.20
2022-08-26T19:32:05.067Z,8.80
2022-08-26T19:34:33.545Z,11.00
2022-08-26T19:37:02.505Z,8.43
2022-08-26T19:39:30.848Z,9.07
2022-08-26T19:42:00.294Z,8.37
2022-08-26T19:44:46.704Z,8.63
2022-08-26T19:47:16.333Z,12.53
2022-08-26T19:49:45.681Z,11.90
2022-08-26T19:52:14.227Z,8.53
2022-08-26T19:54:42.536Z,13.37
2022-08-26T19:57:11.954Z,10.27
2022-08-26T19:59:42.184Z,9.13
2022-08-26T20:02:14.747Z,9.20
2022-08-26T20:04:45.717Z,13.27
2022-08-26T20:07:18.052Z,11.23
2022-08-26T20:09:49.306Z,14.87
2022-08-26T20:12:18.553Z,14.93
2022-08-26T20:14:47.278Z,9.97
2022-08-26T20:17:17.013Z,10.70
2022-08-26T20:20:04.366Z,11.27
2022-08-26T20:22:34.536Z,13.10
2022-08-26T20:25:03.062Z,13.47
2022-08-26T20:27:38.413Z,13.83
2022-08-26T20:30:10.627Z,12.63
2022-08-26T20:32:40.532Z,11.53
2022-08-26T20:35:14.246Z,12.23
2022-08-26T20:37:43.534Z,11.57
2022-08-26T20:40:14.895Z,10.40
2022-08-26T20:42:43.413Z,10.93
2022-08-26T20:45:12.473Z,12.00
2022-08-26T20:47:41.677Z,10.57
2022-08-26T20:50:11.612Z,13.23
2022-08-26T20:52:40.067Z,11.17
2022-08-26T20:55:10.335Z,11.20
2022-08-26T20:57:39.432Z,10.33
2022-08-26T21:00:09.227Z,10.40
2022-08-26T21:02:37.530Z,9.77
2022-08-26T21:05:07.232Z,7.70
2022-08-26T21:07:37.355Z,8.03
2022-08-26T21:10:06.302Z,7.97
2022-08-26T21:12:35.478Z,11.53
2022-08-26T21:15:04.728Z,12.03
2022-08-26T21:17:33.422Z,12.53
2022-08-26T21:20:01.720Z,10.07
2022-08-26T21:22:30.381Z,12.03
2022-08-26T21:25:00.661Z,13.07
2022-08-26T21:27:29.593Z,11.47
2022-08-26T21:29:58.477Z,9.80
2022-08-26T21:32:26.951Z,12.63
2022-08-26T21:34:57.387Z,11.80
2022-08-26T21:37:27.967Z,9.90
2022-08-26T21:39:58.384Z,11.50
2022-08-26T21:42:32.949Z,11.73
2022-08-26T21:45:02.709Z,13.00
2022-08-26T21:47:32.586Z,12.03
2022-08-26T21:50:01.169Z,10.70
2022-08-26T21:52:30.104Z,9.43
2022-08-26T21:54:59.876Z,16.50
2022-08-26T21:57:30.743Z,10.20
2022-08-26T21:59:59.084Z,10.07
2022-08-26T22:02:27.471Z,11.03
2022-08-26T22:04:56.417Z,13.80
2022-08-26T22:07:24.691Z,11.17
2022-08-26T22:09:53.281Z,9.67
2022-08-26T22:12:21.585Z,11.10
2022-08-26T22:14:51.267Z,10.17
2022-08-26T22:17:19.574Z,10.40
2022-08-26T22:19:47.883Z,10.00
2022-08-26T22:22:16.678Z,9.07
2022-08-26T22:24:44.996Z,10.70
2022-08-26T22:27:14.690Z,10.93
2022-08-26T22:29:43.060Z,14.30
2022-08-26T22:32:13.409Z,11.50
2022-08-26T22:34:41.874Z,9.23
2022-08-26T22:37:10.238Z,12.60
2022-08-26T22:39:39.479Z,12.93
2022-08-26T22:42:07.877Z,13.43
2022-08-26T22:44:37.534Z,10.77
2022-08-26T22:47:07.421Z,11.37
2022-08-26T22:49:37.031Z,11.90
2022-08-26T22:52:05.492Z,14.00
2022-08-26T22:54:33.852Z,14.57
2022-08-26T22:57:02.328Z,11.10
2022-08-26T22:59:30.630Z,13.43
2022-08-26T23:01:59.594Z,13.83
2022-08-26T23:04:28.988Z,14.20
2022-08-26T23:06:58.664Z,13.77
2022-08-26T23:09:27.091Z,15.97
2022-08-26T23:11:56.473Z,24.67
2022-08-26T23:14:26.581Z,21.90
2022-08-26T23:16:54.906Z,23.10
2022-08-26T23:19:24.761Z,24.03
2022-08-26T23:21:53.881Z,21.73
2022-08-26T23:24:23.509Z,22.93
2022-08-26T23:26:52.123Z,24.27
2022-08-26T23:29:20.571Z,24.73
2022-08-26T23:31:49.427Z,28.10
2022-08-26T23:34:35.583Z,25.60
2022-08-26T23:37:06.231Z,25.50
2022-08-26T23:39:37.409Z,27.60
2022-08-26T23:42:07.449Z,25.63
2022-08-26T23:44:35.894Z,30.13
2022-08-26T23:47:05.279Z,25.30
2022-08-26T23:49:34.910Z,27.63
2022-08-26T23:52:21.089Z,24.40
2022-08-26T23:54:52.368Z,22.40
2022-08-26T23:57:23.395Z,24.70
2022-08-26T23:59:53.364Z,24.00
